Kingsgate, Washington
Current Conditions -  °F | °C
As of 5:53 PM on Monday 24 Nov 2014 (Local Time) from KBFI Reporting Station
Overcast Overcast  
Wind Chill: 45°   Ceiling: 5000
Heat Index: 48°   Visibility: 10mi
Dew Point: 43°   Wind: 7mph
Humidity: 83%   Direction: 140°SE
Pressure: 30.16"   Gusts: NA
Location:  47.7179°N, 122.204°W
Report Text: KBFI 250153Z 14006KT 10SM FEW036 SCT043 OVC050 09/06 A3016 RMK AO2 RAE0054 SLP212 T00890061
Loading
Personal Weather Stations






























Interactive Weather Map New forecast layout! Learn more

10-Day Weather Forecast

Advertisements
Track Severe Weather on mobile